Current Weather

Somerset

Somerville, New Jersey (KSMQ)

Report from: Friday, February 23, 2024 1:53 PM EST
Current time: Friday, February 23, 2024 2:36 PM EST

Nearby weather – Weather history – Daily summaries
Weather forecast

Temperature8.3°C (46.9°F)
Wind chill7.2°C (44.9°F)
Dew point3.3°C (37.9°F)
Winds 4 kts (2.1 m/s, 4.6 mph) North (360°)
Visibility10 mi. (16.1 km)
Clouds Ceiling: Broken clouds 4,800 ft. (1,463 m)
Overcast 7,500 ft. (2,286 m)
Altimeter29.45 in.Hg (997 mB)
Relative humidity71 %
Density altitude-141 ft. (-43 m)
Sea-level pressure99.7 kPa (997 mB, 29.45 in.Hg)
Remarks Fully automated report
Automated weather observing station with precipitation discriminator
Flight conditions Visual Meteorological Conditions
Raw dataKSMQ 231853Z AUTO 36004KT 10SM BKN048 OVC075 08/03 A2945 RMK AO2 SLP972 T00830033
An error has occurred. This application may no longer respond until reloaded. Reload 🗙